createdAt,value
2023-01-23T00:02:52.208Z,102709.47
2023-01-23T00:07:43.895Z,102656.94
2023-01-23T00:12:35.613Z,102729.06
2023-01-23T00:17:27.471Z,102547.56
2023-01-23T00:22:19.008Z,102721.59
2023-01-23T00:27:10.786Z,102708.91
2023-01-23T00:32:02.490Z,102693.06
2023-01-23T00:36:54.202Z,102683.97
2023-01-23T00:41:49.531Z,102705.59
2023-01-23T00:46:41.333Z,102733.22
2023-01-23T00:51:33.483Z,102744.31
2023-01-23T00:56:25.205Z,102701.69
2023-01-23T01:01:18.995Z,102735.56
2023-01-23T01:06:11.740Z,102685.34
2023-01-23T01:11:03.628Z,102742.50
2023-01-23T01:15:55.918Z,102725.31
2023-01-23T01:20:48.327Z,102758.44
2023-01-23T01:25:40.146Z,102702.94
2023-01-23T01:30:32.651Z,102684.41
2023-01-23T01:35:24.532Z,102761.53
2023-01-23T01:40:21.805Z,102738.38
2023-01-23T01:45:51.117Z,102758.63
2023-01-23T01:50:43.235Z,102689.72
2023-01-23T01:55:34.868Z,102762.16
2023-01-23T02:00:26.631Z,102721.47
2023-01-23T02:05:22.247Z,102625.31
2023-01-23T02:10:16.508Z,102740.59
2023-01-23T02:15:08.648Z,102586.41
2023-01-23T02:20:28.560Z,102683.78
2023-01-23T02:25:38.800Z,102670.75
2023-01-23T02:30:30.596Z,102775.44
2023-01-23T02:35:28.072Z,102747.28
2023-01-23T02:40:37.205Z,102700.69
2023-01-23T02:45:31.234Z,102764.28
2023-01-23T02:50:23.008Z,102724.91
2023-01-23T02:55:14.613Z,102701.22
2023-01-23T03:00:16.868Z,102782.47
2023-01-23T03:05:09.317Z,102776.84
2023-01-23T03:10:00.905Z,102776.97
2023-01-23T03:14:54.873Z,102783.69
2023-01-23T03:19:48.142Z,102683.09
2023-01-23T03:24:39.750Z,102735.50
2023-01-23T03:29:50.100Z,102750.84
2023-01-23T03:34:42.233Z,102601.31
2023-01-23T03:39:53.694Z,102742.16
2023-01-23T03:44:46.342Z,102782.44
2023-01-23T03:49:38.048Z,102711.25
2023-01-23T03:54:29.716Z,102737.06
2023-01-23T03:59:21.431Z,102718.31
2023-01-23T04:04:14.093Z,102787.09
2023-01-23T04:09:06.034Z,102761.72
2023-01-23T04:13:57.854Z,102794.56
2023-01-23T04:18:50.732Z,102796.03
2023-01-23T04:23:42.449Z,102724.72
2023-01-23T04:28:34.797Z,102798.31
2023-01-23T04:33:26.684Z,102746.91
2023-01-23T04:38:19.359Z,102719.94
2023-01-23T04:43:11.789Z,102744.50
2023-01-23T04:48:08.582Z,102718.81
2023-01-23T04:53:02.819Z,102773.63
2023-01-23T04:57:55.101Z,102700.78
2023-01-23T05:02:50.097Z,102696.84
2023-01-23T05:07:43.499Z,102797.47
2023-01-23T05:12:38.932Z,102739.34
2023-01-23T05:17:30.751Z,102701.13
2023-01-23T05:22:23.811Z,102679.78
2023-01-23T05:27:16.028Z,102778.47
2023-01-23T05:32:09.686Z,102697.19
2023-01-23T05:37:01.277Z,102812.56
2023-01-23T05:41:53.567Z,102812.94
2023-01-23T05:47:11.386Z,102781.28
2023-01-23T05:52:03.148Z,102827.75
2023-01-23T05:56:57.001Z,102770.47
2023-01-23T06:02:07.273Z,102749.72
2023-01-23T06:07:31.309Z,102840.06
2023-01-23T06:12:23.549Z,102785.28
2023-01-23T06:17:15.922Z,102791.53
2023-01-23T06:22:08.509Z,102795.69
2023-01-23T06:27:17.659Z,102843.31
2023-01-23T06:32:09.305Z,102816.34
2023-01-23T06:37:03.197Z,102744.22
2023-01-23T06:41:55.230Z,102836.47
2023-01-23T06:46:47.516Z,102824.09
2023-01-23T06:51:39.289Z,102835.16
2023-01-23T06:56:34.265Z,102837.50
2023-01-23T07:01:29.669Z,102901.66
2023-01-23T07:06:33.315Z,102850.69
2023-01-23T07:11:25.284Z,102913.28
2023-01-23T07:16:17.011Z,102915.63
2023-01-23T07:21:09.400Z,102844.50
2023-01-23T07:26:03.670Z,102924.56
2023-01-23T07:30:55.568Z,102819.56
2023-01-23T07:35:47.237Z,102941.06
2023-01-23T07:40:39.038Z,102915.53
2023-01-23T07:45:30.992Z,102790.91
2023-01-23T07:50:22.718Z,102937.75
2023-01-23T07:55:14.428Z,102895.94
2023-01-23T08:00:06.778Z,102921.38
2023-01-23T08:05:04.360Z,102940.47
2023-01-23T08:09:55.946Z,102947.56
2023-01-23T08:14:47.985Z,102945.72
2023-01-23T08:19:39.570Z,102848.81
2023-01-23T08:24:31.258Z,102865.03
2023-01-23T08:29:22.818Z,102948.22
2023-01-23T08:34:14.599Z,102749.09
2023-01-23T08:39:06.326Z,102898.88
2023-01-23T08:44:01.590Z,102905.69
2023-01-23T08:48:53.145Z,102927.47
2023-01-23T08:53:44.767Z,102947.59
2023-01-23T08:58:36.323Z,102903.19
2023-01-23T09:03:28.638Z,102934.94
2023-01-23T09:08:20.287Z,102838.84
2023-01-23T09:13:12.023Z,102871.06
2023-01-23T09:18:03.680Z,102957.22
2023-01-23T09:22:55.299Z,102915.63
2023-01-23T09:27:47.039Z,102948.31
2023-01-23T09:32:38.885Z,102974.13
2023-01-23T09:37:51.302Z,102973.59
2023-01-23T09:42:42.985Z,102940.72
2023-01-23T09:48:09.547Z,102971.63
2023-01-23T09:53:18.423Z,102918.13
2023-01-23T09:58:18.364Z,102997.03
2023-01-23T10:03:15.392Z,102808.34
2023-01-23T10:08:25.159Z,103001.31
2023-01-23T10:13:22.984Z,103000.34
2023-01-23T10:18:25.792Z,103005.22
2023-01-23T10:23:32.136Z,103002.94
2023-01-23T10:28:35.396Z,102993.38
2023-01-23T10:33:45.662Z,102894.31
2023-01-23T10:38:47.656Z,103001.81
2023-01-23T10:43:40.681Z,102903.81
2023-01-23T10:48:32.251Z,102999.38
2023-01-23T10:53:25.185Z,102992.03
2023-01-23T10:58:39.562Z,102993.75
2023-01-23T11:03:35.817Z,103001.13
2023-01-23T11:08:38.149Z,102979.78
2023-01-23T11:13:30.920Z,102967.66
2023-01-23T11:18:34.978Z,102976.06
2023-01-23T11:23:27.240Z,102972.72
2023-01-23T11:28:46.360Z,102974.75
2023-01-23T11:34:00.372Z,102954.75
2023-01-23T11:38:58.259Z,102925.53
2023-01-23T11:43:50.054Z,102908.63
2023-01-23T11:48:59.712Z,102860.31
2023-01-23T11:54:21.734Z,102807.19
2023-01-23T11:59:35.168Z,102937.22
2023-01-23T12:04:29.696Z,102935.44
2023-01-23T12:09:21.718Z,102908.13
2023-01-23T12:14:22.273Z,102934.06
2023-01-23T12:19:33.179Z,102929.31
2023-01-23T12:24:55.632Z,102948.09
2023-01-23T12:30:09.018Z,102944.19
2023-01-23T12:35:28.827Z,102948.84
2023-01-23T12:40:28.729Z,102897.97
2023-01-23T12:45:27.372Z,102941.75
2023-01-23T12:50:38.912Z,102834.81
2023-01-23T12:55:39.172Z,102850.88
2023-01-23T13:01:05.804Z,102831.97
2023-01-23T13:06:00.128Z,102946.72
2023-01-23T13:11:35.980Z,102955.09
2023-01-23T13:16:31.663Z,102910.47
2023-01-23T13:21:42.366Z,102967.50
2023-01-23T13:26:34.013Z,102799.84
2023-01-23T13:31:45.132Z,102963.75
2023-01-23T13:36:37.685Z,102902.94
2023-01-23T13:41:33.020Z,102958.53
2023-01-23T14:23:03.800Z,102878.16
2023-01-23T14:28:03.528Z,102892.16
2023-01-23T14:32:55.485Z,102869.53
2023-01-23T14:37:47.128Z,102923.34
2023-01-23T14:42:40.267Z,102908.38
2023-01-23T14:47:34.647Z,102913.25
2023-01-23T14:52:29.543Z,102871.59
2023-01-23T14:57:23.704Z,102890.84
2023-01-23T15:02:36.581Z,102979.88
2023-01-23T15:07:28.254Z,102986.34
2023-01-23T15:12:19.905Z,102989.59
2023-01-23T15:17:19.261Z,102959.13
2023-01-23T15:22:40.317Z,102999.00
2023-01-23T15:27:34.490Z,102992.59
2023-01-23T15:32:26.441Z,102944.53
2023-01-23T15:37:26.477Z,102989.97
2023-01-23T15:42:17.976Z,102986.59
2023-01-23T15:47:10.454Z,102986.16
2023-01-23T15:52:20.673Z,102971.06
2023-01-23T15:57:13.428Z,102896.09
2023-01-23T16:02:08.125Z,102961.66
2023-01-23T16:07:06.240Z,102902.25
2023-01-23T16:11:59.747Z,102893.34
2023-01-23T16:16:51.394Z,102979.22
2023-01-23T16:21:49.852Z,102988.25
2023-01-23T16:26:44.670Z,102966.56
2023-01-23T16:31:37.959Z,102888.88
2023-01-23T16:36:29.979Z,102987.94
2023-01-23T16:41:22.006Z,102977.88
2023-01-23T16:46:14.171Z,102940.94
2023-01-23T16:51:18.869Z,102971.75
2023-01-23T16:56:29.418Z,102921.13
2023-01-23T17:01:22.991Z,102971.44
2023-01-23T17:06:16.685Z,102974.34
2023-01-23T17:11:10.722Z,102973.81
2023-01-23T17:16:07.374Z,102901.63
2023-01-23T17:21:05.747Z,102946.56
2023-01-23T17:26:01.089Z,102802.25
2023-01-23T17:30:54.875Z,102912.94
2023-01-23T17:35:48.101Z,102929.94
2023-01-23T17:40:40.572Z,102874.47
2023-01-23T17:45:33.344Z,103013.78
2023-01-23T17:50:26.288Z,102983.28
2023-01-23T17:55:23.960Z,102906.81
2023-01-23T18:00:18.677Z,102998.22
2023-01-23T18:05:12.301Z,102947.59
2023-01-23T18:10:05.417Z,102958.59
2023-01-23T18:15:09.689Z,102929.03
2023-01-23T18:20:01.578Z,102893.03
2023-01-23T18:24:53.374Z,102989.69
2023-01-23T18:30:09.526Z,102983.91
2023-01-23T18:35:13.950Z,102988.47
2023-01-23T18:40:20.731Z,102984.00
2023-01-23T18:45:20.975Z,102988.47
2023-01-23T18:50:22.754Z,102981.50
2023-01-23T18:55:34.663Z,102982.44
2023-01-23T19:00:29.055Z,102989.50
2023-01-23T19:05:22.958Z,102888.88
2023-01-23T19:10:17.455Z,102940.44
2023-01-23T19:15:43.192Z,102982.75
2023-01-23T19:20:45.944Z,102982.84
2023-01-23T19:25:37.649Z,102974.16
2023-01-23T19:30:29.737Z,102997.16
2023-01-23T19:35:21.915Z,102964.91
2023-01-23T19:40:15.768Z,103011.09
2023-01-23T19:45:13.263Z,102964.72
2023-01-23T19:50:05.224Z,102932.88
2023-01-23T19:54:56.815Z,102941.38
2023-01-23T19:59:48.405Z,103000.09
2023-01-23T20:04:39.991Z,102974.97
2023-01-23T20:09:31.746Z,102976.44
2023-01-23T20:14:25.035Z,103062.06
2023-01-23T20:19:17.611Z,103062.78
2023-01-23T20:24:09.216Z,103037.34
2023-01-23T20:29:00.787Z,103039.44
2023-01-23T20:33:53.505Z,102992.19
2023-01-23T20:38:45.431Z,103077.84
2023-01-23T20:43:38.098Z,102856.72
2023-01-23T20:48:33.815Z,103041.81
2023-01-23T20:53:31.120Z,102933.28
2023-01-23T20:58:42.498Z,103010.25
2023-01-23T21:03:34.176Z,102974.44
2023-01-23T21:08:25.936Z,102967.81
2023-01-23T21:13:17.499Z,103051.59
2023-01-23T21:18:09.200Z,103033.19
2023-01-23T21:23:00.806Z,102950.72
2023-01-23T21:27:52.653Z,103061.03
2023-01-23T21:32:44.359Z,102913.69
2023-01-23T21:37:36.311Z,103049.28
2023-01-23T21:42:27.966Z,103044.72
2023-01-23T21:47:20.044Z,102992.00
2023-01-23T21:52:11.669Z,103041.00
2023-01-23T21:57:03.253Z,103037.16
2023-01-23T22:01:54.876Z,102993.66
2023-01-23T22:06:46.575Z,102919.28
2023-01-23T22:11:38.523Z,102999.06
2023-01-23T22:16:46.787Z,103043.28
2023-01-23T22:21:40.001Z,102920.63
2023-01-23T22:26:31.595Z,102949.56
2023-01-23T22:31:23.444Z,102982.34
2023-01-23T22:36:20.489Z,102910.25
2023-01-23T22:41:15.112Z,102920.03
2023-01-23T22:46:16.361Z,103007.97
2023-01-23T22:51:14.328Z,103032.69
2023-01-23T22:56:07.229Z,103007.34
2023-01-23T23:00:58.932Z,102955.78
2023-01-23T23:06:01.966Z,103038.72
2023-01-23T23:11:06.139Z,103020.84
2023-01-23T23:15:58.277Z,102976.75
2023-01-23T23:20:49.919Z,103039.53
2023-01-23T23:25:41.548Z,102959.00
2023-01-23T23:30:33.277Z,103038.19
2023-01-23T23:35:26.155Z,102956.63
2023-01-23T23:40:18.782Z,102962.53
2023-01-23T23:45:10.923Z,102948.94
2023-01-23T23:50:03.237Z,103036.00
2023-01-23T23:54:54.837Z,103011.72
2023-01-23T23:59:46.484Z,102584.38
